createdAt,value
2019-03-13T00:04:27.133Z,94751.00
2019-03-13T00:09:56.439Z,94760.00
2019-03-13T00:15:26.923Z,94764.00
2019-03-13T00:20:56.315Z,94755.00
2019-03-13T00:26:25.715Z,94748.00
2019-03-13T00:31:55.090Z,94728.00
2019-03-13T00:37:24.538Z,94724.00
2019-03-13T00:42:53.853Z,94720.00
2019-03-13T00:48:23.182Z,94706.00
2019-03-13T00:53:52.614Z,94684.00
2019-03-13T00:59:21.919Z,94673.00
2019-03-13T01:04:52.935Z,94663.00
2019-03-13T01:10:22.370Z,94675.00
2019-03-13T01:15:51.669Z,94685.00
2019-03-13T01:21:21.125Z,94700.00
2019-03-13T01:26:50.419Z,94709.00
2019-03-13T01:32:33.369Z,94727.00
2019-03-13T01:38:02.770Z,94711.00
2019-03-13T01:43:32.174Z,94724.00
2019-03-13T01:49:01.468Z,94716.00
2019-03-13T01:54:30.973Z,94717.00
2019-03-13T02:00:00.452Z,94748.00
2019-03-13T02:05:29.866Z,94758.00
2019-03-13T02:10:59.282Z,94773.00
2019-03-13T02:16:30.680Z,94807.00
2019-03-13T02:22:00.070Z,94748.00
2019-03-13T02:27:29.409Z,94787.00
2019-03-13T02:32:58.717Z,94804.00
2019-03-13T02:38:28.038Z,94816.00
2019-03-13T02:43:57.508Z,94824.00
2019-03-13T02:49:26.887Z,94839.00
2019-03-13T02:54:56.273Z,94860.00
2019-03-13T03:00:27.739Z,94890.00
2019-03-13T03:05:59.170Z,94904.00
2019-03-13T03:11:28.464Z,94918.00
2019-03-13T03:16:57.925Z,94928.00
2019-03-13T03:22:27.248Z,94979.00
2019-03-13T03:27:56.573Z,94996.00
2019-03-13T03:33:27.149Z,95014.00
2019-03-13T03:38:56.567Z,95031.00
2019-03-13T03:44:25.877Z,95040.00
2019-03-13T03:49:55.198Z,95072.00
2019-03-13T03:55:25.624Z,95078.00
2019-03-13T04:00:55.005Z,95116.00
2019-03-13T04:06:24.329Z,95089.00
2019-03-13T04:11:53.749Z,95073.00
2019-03-13T04:17:23.122Z,95090.00
2019-03-13T04:22:52.452Z,95114.00
2019-03-13T04:28:21.825Z,95110.00
2019-03-13T04:33:51.233Z,95122.00
2019-03-13T04:39:20.584Z,95138.00
2019-03-13T04:44:50.079Z,95143.00
2019-03-13T04:50:19.445Z,95142.00
2019-03-13T04:55:52.289Z,95147.00
2019-03-13T05:01:20.088Z,95159.00
2019-03-13T05:06:49.534Z,95185.00
2019-03-13T05:12:19.182Z,95187.00
2019-03-13T05:17:48.615Z,95190.00
2019-03-13T05:23:18.023Z,95208.00
2019-03-13T05:28:47.547Z,95215.00
2019-03-13T05:34:17.129Z,95218.00
2019-03-13T05:39:46.893Z,95231.00
2019-03-13T05:45:16.574Z,95228.00
2019-03-13T05:50:46.068Z,95249.00
2019-03-13T05:56:15.381Z,95259.00
2019-03-13T06:01:44.846Z,95262.00
2019-03-13T06:07:14.291Z,95270.00
2019-03-13T06:12:44.013Z,95284.00
2019-03-13T06:18:13.597Z,95283.00
2019-03-13T06:23:43.145Z,95294.00
2019-03-13T06:29:12.775Z,95315.00
2019-03-13T06:34:42.159Z,95306.00
2019-03-13T06:40:22.076Z,95307.00
2019-03-13T06:45:51.468Z,95312.00
2019-03-13T06:51:20.896Z,95311.00
2019-03-13T06:56:50.165Z,95317.00
2019-03-13T07:02:21.116Z,95322.00
2019-03-13T07:07:57.826Z,95325.00
2019-03-13T07:13:44.854Z,95328.00
2019-03-13T07:19:19.075Z,95318.00
2019-03-13T07:25:08.558Z,95306.00
2019-03-13T07:30:55.755Z,95313.00
2019-03-13T07:36:29.665Z,95305.00
2019-03-13T07:42:03.615Z,95305.00
2019-03-13T07:47:34.577Z,95287.00
2019-03-13T07:53:11.558Z,95304.00
2019-03-13T07:58:57.505Z,95299.00
2019-03-13T08:04:46.267Z,95293.00
2019-03-13T08:10:35.663Z,95305.00
2019-03-13T08:16:09.593Z,95306.00
2019-03-13T08:21:58.776Z,95306.00
2019-03-13T08:27:44.689Z,95300.00
2019-03-13T08:33:18.516Z,95306.00
2019-03-13T08:38:55.360Z,95291.00
2019-03-13T08:44:29.341Z,95298.00
2019-03-13T08:50:00.384Z,95282.00
2019-03-13T08:55:40.715Z,95301.00
2019-03-13T09:01:26.568Z,95281.00
2019-03-13T09:07:13.595Z,95275.00
2019-03-13T09:12:44.606Z,95278.00
2019-03-13T09:18:21.404Z,95274.00
2019-03-13T09:24:01.567Z,95252.00
2019-03-13T09:29:35.817Z,95251.00
2019-03-13T09:35:20.804Z,95256.00
2019-03-13T09:40:54.643Z,95260.00
2019-03-13T09:46:28.186Z,95263.00
2019-03-13T09:52:02.070Z,95320.00
2019-03-13T09:57:33.137Z,95247.00
2019-03-13T10:03:04.617Z,95236.00
2019-03-13T10:08:44.259Z,95227.00
2019-03-13T10:14:33.818Z,95237.00
2019-03-13T10:20:11.638Z,95240.00
2019-03-13T10:25:45.571Z,95241.00
2019-03-13T10:31:19.551Z,95262.00
2019-03-13T10:36:56.545Z,95232.00
2019-03-13T10:42:30.000Z,95240.00
2019-03-13T10:48:03.771Z,95228.00
2019-03-13T10:53:51.181Z,95212.00
2019-03-13T10:59:28.182Z,95214.00
2019-03-13T11:04:59.256Z,95196.00
2019-03-13T11:10:35.733Z,95206.00
2019-03-13T11:16:22.920Z,95180.00
2019-03-13T11:22:10.508Z,95187.00
2019-03-13T11:27:41.645Z,95192.00
2019-03-13T11:33:21.885Z,95179.00
2019-03-13T11:38:58.783Z,95243.00
2019-03-13T11:44:32.446Z,95224.00
2019-03-13T11:50:09.199Z,95202.00
2019-03-13T11:55:46.039Z,95205.00
2019-03-13T12:01:17.606Z,95186.00
2019-03-13T12:06:57.678Z,95162.00
2019-03-13T12:12:28.650Z,95142.00
2019-03-13T12:18:05.244Z,95136.00
2019-03-13T12:23:39.406Z,95129.00
2019-03-13T12:29:10.688Z,95130.00
2019-03-13T12:34:56.758Z,95107.00
2019-03-13T12:46:28.368Z,95116.00
2019-03-13T12:52:10.284Z,95118.00
2019-03-13T12:57:50.304Z,95120.00
2019-03-13T13:03:30.877Z,95147.00
2019-03-13T13:09:07.839Z,95130.00
2019-03-13T13:14:39.104Z,95117.00
2019-03-13T13:20:13.214Z,95110.00
2019-03-13T13:25:42.864Z,95102.00
2019-03-13T13:31:12.735Z,95083.00
2019-03-13T13:36:42.550Z,95074.00
2019-03-13T13:42:12.263Z,95100.00
2019-03-13T13:47:42.204Z,95095.00
2019-03-13T13:53:12.330Z,95096.00
2019-03-13T13:58:42.054Z,95105.00
2019-03-13T14:04:11.889Z,95117.00
2019-03-13T14:09:41.496Z,95120.00
2019-03-13T14:15:16.517Z,95117.00
2019-03-13T14:20:46.195Z,95049.00
2019-03-13T14:26:15.631Z,95062.00
2019-03-13T14:31:45.658Z,95080.00
2019-03-13T14:37:15.599Z,95059.00
2019-03-13T14:42:45.308Z,95131.00
2019-03-13T14:48:15.258Z,95134.00
2019-03-13T14:53:44.801Z,95134.00
2019-03-13T14:59:14.403Z,95139.00
2019-03-13T15:04:44.155Z,95135.00
2019-03-13T15:10:19.162Z,95126.00
2019-03-13T15:15:48.622Z,95114.00
2019-03-13T15:21:18.199Z,95123.00
2019-03-13T15:26:47.651Z,95158.00
2019-03-13T15:32:17.279Z,95140.00
2019-03-13T15:37:46.979Z,95129.00
2019-03-13T15:43:16.516Z,95126.00
2019-03-13T15:48:47.182Z,95105.00
2019-03-13T15:54:17.026Z,95089.00
2019-03-13T15:59:46.503Z,95069.00
2019-03-13T16:05:16.031Z,95100.00
2019-03-13T16:10:45.889Z,95096.00
2019-03-13T16:16:15.492Z,95103.00
2019-03-13T16:21:45.120Z,95118.00
2019-03-13T16:27:14.710Z,95119.00
2019-03-13T16:32:44.503Z,95114.00
2019-03-13T16:38:14.156Z,95100.00
2019-03-13T16:43:44.090Z,95105.00
2019-03-13T16:49:13.654Z,95087.00
2019-03-13T16:54:43.563Z,95109.00
2019-03-13T17:00:22.847Z,95137.00
2019-03-13T17:05:53.112Z,95129.00
2019-03-13T17:11:23.390Z,95123.00
2019-03-13T17:17:47.940Z,95121.00
2019-03-13T17:23:18.353Z,95119.00
2019-03-13T17:28:50.320Z,95120.00
2019-03-13T17:34:19.664Z,95111.00
2019-03-13T17:39:49.594Z,95106.00
2019-03-13T17:45:21.955Z,95099.00
2019-03-13T17:50:54.647Z,95095.00
2019-03-13T17:56:24.282Z,95115.00
2019-03-13T18:01:54.458Z,95108.00
2019-03-13T18:07:24.021Z,95101.00
2019-03-13T18:12:53.519Z,95079.00
2019-03-13T18:18:22.960Z,95088.00
2019-03-13T18:23:52.383Z,95098.00
2019-03-13T18:30:14.789Z,95094.00
2019-03-13T18:35:44.624Z,95117.00
2019-03-13T18:41:18.947Z,95107.00
2019-03-13T18:46:49.575Z,95107.00
2019-03-13T18:52:19.197Z,95108.00
2019-03-13T18:57:50.865Z,95119.00
2019-03-13T19:09:06.754Z,95120.00
2019-03-13T19:20:35.578Z,95117.00
2019-03-13T19:26:04.791Z,95114.00
2019-03-13T19:31:34.982Z,95120.00
2019-03-13T19:37:04.242Z,95115.00
2019-03-13T19:42:36.913Z,95092.00
2019-03-13T19:48:07.417Z,95086.00
2019-03-13T19:53:42.725Z,95094.00
2019-03-13T19:59:13.504Z,95097.00
2019-03-13T20:04:47.226Z,95110.00
2019-03-13T20:10:26.402Z,95103.00
2019-03-13T20:15:56.811Z,95108.00
2019-03-13T20:21:32.387Z,95103.00
2019-03-13T20:27:01.659Z,95110.00
2019-03-13T20:32:32.886Z,95116.00
2019-03-13T20:38:02.180Z,95111.00
2019-03-13T20:43:31.569Z,95128.00
2019-03-13T20:49:00.854Z,95125.00
2019-03-13T20:54:36.072Z,95118.00
2019-03-13T21:00:15.178Z,95122.00
2019-03-13T21:05:47.356Z,95140.00
2019-03-13T21:11:16.640Z,95126.00
2019-03-13T21:16:46.008Z,95131.00
2019-03-13T21:22:16.315Z,95121.00
2019-03-13T21:27:47.722Z,95126.00
2019-03-13T21:33:22.622Z,95114.00
2019-03-13T21:38:53.896Z,95128.00
2019-03-13T21:44:24.088Z,95121.00
2019-03-13T21:49:59.337Z,95117.00
2019-03-13T21:55:28.627Z,95132.00
2019-03-13T22:00:57.898Z,95113.00
2019-03-13T22:06:28.977Z,95124.00
2019-03-13T22:11:58.247Z,95132.00
2019-03-13T22:17:38.737Z,95124.00
2019-03-13T22:23:08.209Z,95110.00
2019-03-13T22:28:38.862Z,95111.00
2019-03-13T22:34:08.318Z,95098.00
2019-03-13T22:39:38.863Z,95090.00
2019-03-13T22:45:12.198Z,95105.00
2019-03-13T22:50:41.568Z,95116.00
2019-03-13T22:56:10.927Z,95082.00
2019-03-13T23:01:43.074Z,95083.00
2019-03-13T23:07:13.923Z,95099.00
2019-03-13T23:12:43.275Z,95116.00
2019-03-13T23:18:14.173Z,95114.00
2019-03-13T23:23:43.645Z,95131.00
2019-03-13T23:29:13.009Z,95131.00
2019-03-13T23:34:42.459Z,95122.00
2019-03-13T23:40:11.932Z,95134.00
2019-03-13T23:45:41.431Z,95124.00
2019-03-13T23:51:10.793Z,95110.00
2019-03-13T23:56:40.186Z,95112.00
